sensor_id;sensor_type;location;lat;lon;timestamp;temperature;humidity
8953;DHT22;4511;50.890;8.054;2022-12-18T00:01:56;-4.60;99.90
8953;DHT22;4511;50.890;8.054;2022-12-18T00:04:24;-4.60;99.90
8953;DHT22;4511;50.890;8.054;2022-12-18T00:06:51;-4.60;99.90
8953;DHT22;4511;50.890;8.054;2022-12-18T00:09:18;-4.60;99.90
8953;DHT22;4511;50.890;8.054;2022-12-18T00:11:45;-4.60;99.90
8953;DHT22;4511;50.890;8.054;2022-12-18T00:14:12;-4.60;99.90
8953;DHT22;4511;50.890;8.054;2022-12-18T00:16:39;-4.60;99.90
8953;DHT22;4511;50.890;8.054;2022-12-18T00:19:06;-4.70;99.90
8953;DHT22;4511;50.890;8.054;2022-12-18T00:21:34;-4.70;99.90
8953;DHT22;4511;50.890;8.054;2022-12-18T00:24:01;-4.70;99.90
8953;DHT22;4511;50.890;8.054;2022-12-18T00:26:28;-4.70;99.90
8953;DHT22;4511;50.890;8.054;2022-12-18T00:28:57;-4.60;99.90
8953;DHT22;4511;50.890;8.054;2022-12-18T00:31:24;-4.60;99.90
8953;DHT22;4511;50.890;8.054;2022-12-18T00:33:52;-4.60;99.90
8953;DHT22;4511;50.890;8.054;2022-12-18T00:36:20;-4.60;99.90
8953;DHT22;4511;50.890;8.054;2022-12-18T00:38:48;-4.60;99.90
8953;DHT22;4511;50.890;8.054;2022-12-18T00:41:15;-4.70;99.90
8953;DHT22;4511;50.890;8.054;2022-12-18T00:44:04;-4.70;99.90
8953;DHT22;4511;50.890;8.054;2022-12-18T00:46:30;-4.70;99.90
8953;DHT22;4511;50.890;8.054;2022-12-18T00:48:56;-4.60;99.90
8953;DHT22;4511;50.890;8.054;2022-12-18T00:51:23;-4.60;99.90
8953;DHT22;4511;50.890;8.054;2022-12-18T00:53:51;-4.60;99.90
8953;DHT22;4511;50.890;8.054;2022-12-18T00:56:18;-4.60;99.90
8953;DHT22;4511;50.890;8.054;2022-12-18T00:58:45;-4.70;99.90
8953;DHT22;4511;50.890;8.054;2022-12-18T01:01:11;-4.80;99.90
8953;DHT22;4511;50.890;8.054;2022-12-18T01:03:38;-4.80;99.90
8953;DHT22;4511;50.890;8.054;2022-12-18T01:06:05;-4.80;99.90
8953;DHT22;4511;50.890;8.054;2022-12-18T01:08:32;-4.80;99.90
8953;DHT22;4511;50.890;8.054;2022-12-18T01:11:00;-4.80;99.90
8953;DHT22;4511;50.890;8.054;2022-12-18T01:13:27;-4.80;99.90
8953;DHT22;4511;50.890;8.054;2022-12-18T01:15:54;-4.80;99.90
8953;DHT22;4511;50.890;8.054;2022-12-18T01:18:20;-4.80;99.90
8953;DHT22;4511;50.890;8.054;2022-12-18T01:20:47;-4.80;99.90
8953;DHT22;4511;50.890;8.054;2022-12-18T01:23:13;-4.70;99.90
8953;DHT22;4511;50.890;8.054;2022-12-18T01:25:40;-4.70;99.90
8953;DHT22;4511;50.890;8.054;2022-12-18T01:28:08;-4.60;99.90
8953;DHT22;4511;50.890;8.054;2022-12-18T01:30:34;-4.50;99.90
8953;DHT22;4511;50.890;8.054;2022-12-18T01:33:01;-5.00;99.90
8953;DHT22;4511;50.890;8.054;2022-12-18T01:35:28;-5.20;99.90
8953;DHT22;4511;50.890;8.054;2022-12-18T01:37:54;-5.00;99.90
8953;DHT22;4511;50.890;8.054;2022-12-18T01:40:21;-5.00;99.90
8953;DHT22;4511;50.890;8.054;2022-12-18T01:42:49;-5.00;99.90
8953;DHT22;4511;50.890;8.054;2022-12-18T01:45:25;-4.90;99.90
8953;DHT22;4511;50.890;8.054;2022-12-18T01:47:52;-5.00;99.90
8953;DHT22;4511;50.890;8.054;2022-12-18T01:50:20;-5.00;99.90
8953;DHT22;4511;50.890;8.054;2022-12-18T01:52:50;-5.10;99.90
8953;DHT22;4511;50.890;8.054;2022-12-18T01:55:19;-5.10;99.90
8953;DHT22;4511;50.890;8.054;2022-12-18T01:57:47;-5.20;99.90
8953;DHT22;4511;50.890;8.054;2022-12-18T02:00:15;-5.20;99.90
8953;DHT22;4511;50.890;8.054;2022-12-18T02:02:44;-5.10;99.90
8953;DHT22;4511;50.890;8.054;2022-12-18T02:05:12;-5.20;99.90
8953;DHT22;4511;50.890;8.054;2022-12-18T02:07:42;-5.30;99.90
8953;DHT22;4511;50.890;8.054;2022-12-18T02:10:13;-5.20;99.90
8953;DHT22;4511;50.890;8.054;2022-12-18T02:12:42;-5.20;99.90
8953;DHT22;4511;50.890;8.054;2022-12-18T02:15:12;-5.20;99.90
8953;DHT22;4511;50.890;8.054;2022-12-18T02:17:41;-5.20;99.90
8953;DHT22;4511;50.890;8.054;2022-12-18T02:20:12;-5.20;99.90
8953;DHT22;4511;50.890;8.054;2022-12-18T02:22:43;-5.00;99.90
8953;DHT22;4511;50.890;8.054;2022-12-18T02:25:13;-4.90;99.90
8953;DHT22;4511;50.890;8.054;2022-12-18T02:27:43;-4.80;99.90
8953;DHT22;4511;50.890;8.054;2022-12-18T02:30:10;-4.80;99.90
8953;DHT22;4511;50.890;8.054;2022-12-18T02:32:38;-4.80;99.90
8953;DHT22;4511;50.890;8.054;2022-12-18T02:35:06;-4.70;99.90
8953;DHT22;4511;50.890;8.054;2022-12-18T02:37:34;-4.70;99.90
8953;DHT22;4511;50.890;8.054;2022-12-18T02:40:02;-4.80;99.90
8953;DHT22;4511;50.890;8.054;2022-12-18T02:42:29;-4.90;99.90
8953;DHT22;4511;50.890;8.054;2022-12-18T02:44:58;-4.90;99.90
8953;DHT22;4511;50.890;8.054;2022-12-18T02:47:28;-4.90;99.90
8953;DHT22;4511;50.890;8.054;2022-12-18T02:49:58;-5.00;99.90
8953;DHT22;4511;50.890;8.054;2022-12-18T02:52:28;-5.10;99.90
8953;DHT22;4511;50.890;8.054;2022-12-18T02:55:00;-5.10;99.90
8953;DHT22;4511;50.890;8.054;2022-12-18T02:57:33;-5.10;99.90
8953;DHT22;4511;50.890;8.054;2022-12-18T03:00:03;-5.20;99.90
8953;DHT22;4511;50.890;8.054;2022-12-18T03:02:33;-5.10;99.90
8953;DHT22;4511;50.890;8.054;2022-12-18T03:05:03;-5.00;99.90
8953;DHT22;4511;50.890;8.054;2022-12-18T03:07:33;-5.00;99.90
8953;DHT22;4511;50.890;8.054;2022-12-18T03:10:01;-4.90;99.90
8953;DHT22;4511;50.890;8.054;2022-12-18T03:12:29;-4.80;99.90
8953;DHT22;4511;50.890;8.054;2022-12-18T03:14:58;-4.70;99.90
8953;DHT22;4511;50.890;8.054;2022-12-18T03:17:27;-4.50;99.90
8953;DHT22;4511;50.890;8.054;2022-12-18T03:19:55;-4.50;99.90
8953;DHT22;4511;50.890;8.054;2022-12-18T03:22:23;-4.40;99.90
8953;DHT22;4511;50.890;8.054;2022-12-18T03:24:50;-4.30;99.90
8953;DHT22;4511;50.890;8.054;2022-12-18T03:27:18;-4.30;99.90
8953;DHT22;4511;50.890;8.054;2022-12-18T03:29:47;-4.30;99.90
8953;DHT22;4511;50.890;8.054;2022-12-18T03:32:15;-4.20;99.90
8953;DHT22;4511;50.890;8.054;2022-12-18T03:34:43;-4.20;99.90
8953;DHT22;4511;50.890;8.054;2022-12-18T03:37:12;-4.10;99.90
8953;DHT22;4511;50.890;8.054;2022-12-18T03:39:38;-4.10;99.90
8953;DHT22;4511;50.890;8.054;2022-12-18T03:42:05;-4.10;99.90
8953;DHT22;4511;50.890;8.054;2022-12-18T03:44:35;-4.10;99.90
8953;DHT22;4511;50.890;8.054;2022-12-18T03:47:05;-4.00;99.90
8953;DHT22;4511;50.890;8.054;2022-12-18T03:49:33;-4.00;99.90
8953;DHT22;4511;50.890;8.054;2022-12-18T03:52:04;-4.00;99.90
8953;DHT22;4511;50.890;8.054;2022-12-18T03:54:31;-4.00;99.90
8953;DHT22;4511;50.890;8.054;2022-12-18T03:57:01;-3.90;99.90
8953;DHT22;4511;50.890;8.054;2022-12-18T03:59:29;-3.90;99.90
8953;DHT22;4511;50.890;8.054;2022-12-18T04:01:57;-3.90;99.90
8953;DHT22;4511;50.890;8.054;2022-12-18T04:04:25;-3.90;99.90
8953;DHT22;4511;50.890;8.054;2022-12-18T04:06:52;-3.80;99.90
8953;DHT22;4511;50.890;8.054;2022-12-18T04:09:20;-3.90;99.90
8953;DHT22;4511;50.890;8.054;2022-12-18T04:11:47;-3.80;99.90
8953;DHT22;4511;50.890;8.054;2022-12-18T04:14:14;-3.80;99.90
8953;DHT22;4511;50.890;8.054;2022-12-18T04:16:40;-3.80;99.90
8953;DHT22;4511;50.890;8.054;2022-12-18T04:19:07;-3.70;99.90
8953;DHT22;4511;50.890;8.054;2022-12-18T04:21:33;-3.70;99.90
8953;DHT22;4511;50.890;8.054;2022-12-18T04:24:00;-3.70;99.90
8953;DHT22;4511;50.890;8.054;2022-12-18T04:26:28;-3.70;99.90
8953;DHT22;4511;50.890;8.054;2022-12-18T04:28:54;-3.70;99.90
8953;DHT22;4511;50.890;8.054;2022-12-18T04:31:21;-3.70;99.90
8953;DHT22;4511;50.890;8.054;2022-12-18T04:33:48;-3.70;99.90
8953;DHT22;4511;50.890;8.054;2022-12-18T04:36:14;-3.70;99.90
8953;DHT22;4511;50.890;8.054;2022-12-18T04:38:41;-3.70;99.90
8953;DHT22;4511;50.890;8.054;2022-12-18T04:41:07;-3.70;99.90
8953;DHT22;4511;50.890;8.054;2022-12-18T04:43:35;-3.70;99.90
8953;DHT22;4511;50.890;8.054;2022-12-18T04:46:03;-3.60;99.90
8953;DHT22;4511;50.890;8.054;2022-12-18T04:48:29;-3.60;99.90
8953;DHT22;4511;50.890;8.054;2022-12-18T04:50:56;-3.60;99.90
8953;DHT22;4511;50.890;8.054;2022-12-18T04:53:22;-3.60;99.90
8953;DHT22;4511;50.890;8.054;2022-12-18T04:55:49;-3.60;99.90
8953;DHT22;4511;50.890;8.054;2022-12-18T04:58:16;-3.60;99.90
8953;DHT22;4511;50.890;8.054;2022-12-18T05:00:43;-3.50;99.90
8953;DHT22;4511;50.890;8.054;2022-12-18T05:03:10;-3.50;99.90
8953;DHT22;4511;50.890;8.054;2022-12-18T05:05:37;-3.50;99.90
8953;DHT22;4511;50.890;8.054;2022-12-18T05:08:03;-3.50;99.90
8953;DHT22;4511;50.890;8.054;2022-12-18T05:10:30;-3.40;99.90
8953;DHT22;4511;50.890;8.054;2022-12-18T05:12:56;-3.40;99.90
8953;DHT22;4511;50.890;8.054;2022-12-18T05:15:27;-3.40;99.90
8953;DHT22;4511;50.890;8.054;2022-12-18T05:17:54;-3.50;99.90
8953;DHT22;4511;50.890;8.054;2022-12-18T05:20:21;-3.40;99.90
8953;DHT22;4511;50.890;8.054;2022-12-18T05:22:48;-3.40;99.90
8953;DHT22;4511;50.890;8.054;2022-12-18T05:25:14;-3.40;99.90
8953;DHT22;4511;50.890;8.054;2022-12-18T05:27:41;-3.40;99.90
8953;DHT22;4511;50.890;8.054;2022-12-18T05:30:08;-3.30;99.90
8953;DHT22;4511;50.890;8.054;2022-12-18T05:32:35;-3.30;99.90
8953;DHT22;4511;50.890;8.054;2022-12-18T05:35:04;-3.30;99.90
8953;DHT22;4511;50.890;8.054;2022-12-18T05:37:31;-3.30;99.90
8953;DHT22;4511;50.890;8.054;2022-12-18T05:39:57;-3.30;99.90
8953;DHT22;4511;50.890;8.054;2022-12-18T05:42:24;-3.30;99.90
8953;DHT22;4511;50.890;8.054;2022-12-18T05:44:50;-3.30;99.90
8953;DHT22;4511;50.890;8.054;2022-12-18T05:47:17;-3.30;99.90
8953;DHT22;4511;50.890;8.054;2022-12-18T05:49:44;-3.20;99.90
8953;DHT22;4511;50.890;8.054;2022-12-18T05:52:11;-3.20;99.90
8953;DHT22;4511;50.890;8.054;2022-12-18T05:54:38;-3.20;99.90
8953;DHT22;4511;50.890;8.054;2022-12-18T05:57:05;-3.20;99.90
8953;DHT22;4511;50.890;8.054;2022-12-18T05:59:32;-3.20;99.90
8953;DHT22;4511;50.890;8.054;2022-12-18T06:01:58;-3.20;99.90
8953;DHT22;4511;50.890;8.054;2022-12-18T06:04:26;-3.20;99.90
8953;DHT22;4511;50.890;8.054;2022-12-18T06:06:53;-3.20;99.90
8953;DHT22;4511;50.890;8.054;2022-12-18T06:09:20;-3.20;99.90
8953;DHT22;4511;50.890;8.054;2022-12-18T06:11:47;-3.20;99.90
8953;DHT22;4511;50.890;8.054;2022-12-18T06:14:14;-3.20;99.90
8953;DHT22;4511;50.890;8.054;2022-12-18T06:16:42;-3.20;99.90
8953;DHT22;4511;50.890;8.054;2022-12-18T06:19:12;-3.20;99.90
8953;DHT22;4511;50.890;8.054;2022-12-18T06:21:39;-3.10;99.90
8953;DHT22;4511;50.890;8.054;2022-12-18T06:24:05;-3.10;99.90
8953;DHT22;4511;50.890;8.054;2022-12-18T06:26:34;-3.10;99.90
8953;DHT22;4511;50.890;8.054;2022-12-18T06:29:02;-3.10;99.90
8953;DHT22;4511;50.890;8.054;2022-12-18T06:31:29;-3.10;99.90
8953;DHT22;4511;50.890;8.054;2022-12-18T06:33:55;-3.20;99.90
8953;DHT22;4511;50.890;8.054;2022-12-18T06:36:22;-3.20;99.90
8953;DHT22;4511;50.890;8.054;2022-12-18T06:38:49;-3.10;99.90
8953;DHT22;4511;50.890;8.054;2022-12-18T06:41:16;-3.10;99.90
8953;DHT22;4511;50.890;8.054;2022-12-18T06:43:44;-3.10;99.90
8953;DHT22;4511;50.890;8.054;2022-12-18T06:46:11;-3.10;99.90
8953;DHT22;4511;50.890;8.054;2022-12-18T06:48:37;-3.20;99.90
8953;DHT22;4511;50.890;8.054;2022-12-18T06:51:04;-3.10;99.90
8953;DHT22;4511;50.890;8.054;2022-12-18T06:53:31;-3.10;99.90
8953;DHT22;4511;50.890;8.054;2022-12-18T06:56:01;-3.20;99.90
8953;DHT22;4511;50.890;8.054;2022-12-18T06:58:27;-3.20;99.90
8953;DHT22;4511;50.890;8.054;2022-12-18T07:01:00;-3.20;99.90
8953;DHT22;4511;50.890;8.054;2022-12-18T07:03:27;-3.20;99.90
8953;DHT22;4511;50.890;8.054;2022-12-18T07:05:54;-3.20;99.90
8953;DHT22;4511;50.890;8.054;2022-12-18T07:08:20;-3.20;99.90
8953;DHT22;4511;50.890;8.054;2022-12-18T07:10:47;-3.10;99.90
8953;DHT22;4511;50.890;8.054;2022-12-18T07:13:14;-3.10;99.90
8953;DHT22;4511;50.890;8.054;2022-12-18T07:15:41;-3.10;99.90
8953;DHT22;4511;50.890;8.054;2022-12-18T07:18:09;-3.10;99.90
8953;DHT22;4511;50.890;8.054;2022-12-18T07:20:35;-3.10;99.90
8953;DHT22;4511;50.890;8.054;2022-12-18T07:23:02;-3.10;99.90
8953;DHT22;4511;50.890;8.054;2022-12-18T07:25:30;-3.10;99.90
8953;DHT22;4511;50.890;8.054;2022-12-18T07:27:56;-3.10;99.90
8953;DHT22;4511;50.890;8.054;2022-12-18T07:30:23;-3.10;99.90
8953;DHT22;4511;50.890;8.054;2022-12-18T07:32:50;-3.10;99.90
8953;DHT22;4511;50.890;8.054;2022-12-18T07:35:18;-3.00;99.90
8953;DHT22;4511;50.890;8.054;2022-12-18T07:37:44;-3.00;99.90
8953;DHT22;4511;50.890;8.054;2022-12-18T07:40:11;-3.00;99.90
8953;DHT22;4511;50.890;8.054;2022-12-18T07:42:38;-3.00;99.90
8953;DHT22;4511;50.890;8.054;2022-12-18T07:45:05;-3.00;99.90
8953;DHT22;4511;50.890;8.054;2022-12-18T07:47:33;-3.00;99.90
8953;DHT22;4511;50.890;8.054;2022-12-18T07:50:00;-3.00;99.90
8953;DHT22;4511;50.890;8.054;2022-12-18T07:52:28;-2.90;99.90
8953;DHT22;4511;50.890;8.054;2022-12-18T07:54:54;-3.00;99.90
8953;DHT22;4511;50.890;8.054;2022-12-18T07:57:21;-2.90;99.90
8953;DHT22;4511;50.890;8.054;2022-12-18T07:59:47;-2.90;99.90
8953;DHT22;4511;50.890;8.054;2022-12-18T08:02:14;-2.90;99.90
8953;DHT22;4511;50.890;8.054;2022-12-18T08:04:40;-2.80;99.90
8953;DHT22;4511;50.890;8.054;2022-12-18T08:07:07;-2.80;99.90
8953;DHT22;4511;50.890;8.054;2022-12-18T08:09:35;-2.70;99.90
8953;DHT22;4511;50.890;8.054;2022-12-18T08:12:01;-2.70;99.90
8953;DHT22;4511;50.890;8.054;2022-12-18T08:14:28;-2.60;99.90
8953;DHT22;4511;50.890;8.054;2022-12-18T08:16:55;-2.60;99.90
8953;DHT22;4511;50.890;8.054;2022-12-18T08:19:21;-2.60;99.90
8953;DHT22;4511;50.890;8.054;2022-12-18T08:21:48;-2.40;99.90
8953;DHT22;4511;50.890;8.054;2022-12-18T08:24:14;-2.40;99.90
8953;DHT22;4511;50.890;8.054;2022-12-18T08:26:42;-2.30;99.90
8953;DHT22;4511;50.890;8.054;2022-12-18T08:29:09;-2.30;99.90
8953;DHT22;4511;50.890;8.054;2022-12-18T08:31:36;-2.20;99.90
8953;DHT22;4511;50.890;8.054;2022-12-18T08:34:02;-2.20;99.90
8953;DHT22;4511;50.890;8.054;2022-12-18T08:36:29;-2.10;99.90
8953;DHT22;4511;50.890;8.054;2022-12-18T08:38:56;-2.10;99.90
8953;DHT22;4511;50.890;8.054;2022-12-18T08:41:22;-2.00;99.90
8953;DHT22;4511;50.890;8.054;2022-12-18T08:43:50;-2.00;99.90
8953;DHT22;4511;50.890;8.054;2022-12-18T08:46:35;-1.80;99.90
8953;DHT22;4511;50.890;8.054;2022-12-18T08:49:02;-1.80;99.90
8953;DHT22;4511;50.890;8.054;2022-12-18T08:51:29;-1.70;99.90
8953;DHT22;4511;50.890;8.054;2022-12-18T08:53:56;-1.60;99.90
8953;DHT22;4511;50.890;8.054;2022-12-18T08:56:22;-1.50;99.90
8953;DHT22;4511;50.890;8.054;2022-12-18T08:58:52;-1.50;99.90
8953;DHT22;4511;50.890;8.054;2022-12-18T09:01:19;-1.40;99.90
8953;DHT22;4511;50.890;8.054;2022-12-18T09:03:46;-1.30;99.90
8953;DHT22;4511;50.890;8.054;2022-12-18T09:06:13;-1.20;99.90
8953;DHT22;4511;50.890;8.054;2022-12-18T09:08:40;-1.20;99.90
8953;DHT22;4511;50.890;8.054;2022-12-18T09:11:10;-1.10;99.90
8953;DHT22;4511;50.890;8.054;2022-12-18T09:13:38;-1.00;99.90
8953;DHT22;4511;50.890;8.054;2022-12-18T09:16:06;-1.00;99.90
8953;DHT22;4511;50.890;8.054;2022-12-18T09:18:32;-0.90;99.90
8953;DHT22;4511;50.890;8.054;2022-12-18T09:20:59;-0.80;99.90
8953;DHT22;4511;50.890;8.054;2022-12-18T09:23:26;-0.80;99.90
8953;DHT22;4511;50.890;8.054;2022-12-18T09:25:58;-0.80;99.90
8953;DHT22;4511;50.890;8.054;2022-12-18T09:28:24;-0.40;99.90
8953;DHT22;4511;50.890;8.054;2022-12-18T09:30:51;-0.10;99.90
8953;DHT22;4511;50.890;8.054;2022-12-18T09:33:19;0.10;99.90
8953;DHT22;4511;50.890;8.054;2022-12-18T09:35:45;0.30;99.90
8953;DHT22;4511;50.890;8.054;2022-12-18T09:38:13;0.20;99.90
8953;DHT22;4511;50.890;8.054;2022-12-18T09:40:42;0.10;99.90
8953;DHT22;4511;50.890;8.054;2022-12-18T09:43:09;0.00;99.90
8953;DHT22;4511;50.890;8.054;2022-12-18T09:45:40;-0.10;99.90
8953;DHT22;4511;50.890;8.054;2022-12-18T09:48:08;-0.10;99.90
8953;DHT22;4511;50.890;8.054;2022-12-18T09:50:38;-0.10;99.90
8953;DHT22;4511;50.890;8.054;2022-12-18T09:53:06;-0.10;99.90
8953;DHT22;4511;50.890;8.054;2022-12-18T09:55:36;-0.10;99.90
8953;DHT22;4511;50.890;8.054;2022-12-18T09:58:05;-0.10;99.90
8953;DHT22;4511;50.890;8.054;2022-12-18T10:00:32;0.20;99.90
8953;DHT22;4511;50.890;8.054;2022-12-18T10:02:59;0.60;99.90
8953;DHT22;4511;50.890;8.054;2022-12-18T10:05:30;0.50;99.90
8953;DHT22;4511;50.890;8.054;2022-12-18T10:08:02;0.50;99.90
8953;DHT22;4511;50.890;8.054;2022-12-18T10:10:32;0.50;99.90
8953;DHT22;4511;50.890;8.054;2022-12-18T10:13:02;0.50;99.90
8953;DHT22;4511;50.890;8.054;2022-12-18T10:15:34;0.60;99.90
8953;DHT22;4511;50.890;8.054;2022-12-18T10:18:04;0.60;99.90
8953;DHT22;4511;50.890;8.054;2022-12-18T10:20:34;0.70;99.90
8953;DHT22;4511;50.890;8.054;2022-12-18T10:23:04;0.70;99.90
8953;DHT22;4511;50.890;8.054;2022-12-18T10:25:36;0.70;99.90
8953;DHT22;4511;50.890;8.054;2022-12-18T10:28:07;0.70;99.90
8953;DHT22;4511;50.890;8.054;2022-12-18T10:30:35;1.00;99.90
8953;DHT22;4511;50.890;8.054;2022-12-18T10:33:01;0.80;99.90
8953;DHT22;4511;50.890;8.054;2022-12-18T10:35:28;0.70;99.90
8953;DHT22;4511;50.890;8.054;2022-12-18T10:38:06;0.70;99.90
8953;DHT22;4511;50.890;8.054;2022-12-18T10:40:36;0.60;99.90
8953;DHT22;4511;50.890;8.054;2022-12-18T10:43:14;0.60;99.90
8953;DHT22;4511;50.890;8.054;2022-12-18T10:45:41;0.50;99.90
8953;DHT22;4511;50.890;8.054;2022-12-18T10:48:17;0.50;99.90
8953;DHT22;4511;50.890;8.054;2022-12-18T10:50:46;0.50;99.90
8953;DHT22;4511;50.890;8.054;2022-12-18T10:53:16;0.40;99.90
8953;DHT22;4511;50.890;8.054;2022-12-18T10:55:45;0.40;99.90
8953;DHT22;4511;50.890;8.054;2022-12-18T10:58:13;0.40;99.90
8953;DHT22;4511;50.890;8.054;2022-12-18T11:00:43;0.50;99.90
8953;DHT22;4511;50.890;8.054;2022-12-18T11:06:00;0.50;99.90
8953;DHT22;4511;50.890;8.054;2022-12-18T11:08:28;0.60;99.90
8953;DHT22;4511;50.890;8.054;2022-12-18T11:10:55;0.70;99.90
8953;DHT22;4511;50.890;8.054;2022-12-18T11:13:22;0.80;99.90
8953;DHT22;4511;50.890;8.054;2022-12-18T11:15:50;0.80;99.90
8953;DHT22;4511;50.890;8.054;2022-12-18T11:18:17;0.90;99.90
8953;DHT22;4511;50.890;8.054;2022-12-18T11:20:49;1.00;99.90
8953;DHT22;4511;50.890;8.054;2022-12-18T11:23:17;0.80;99.90
8953;DHT22;4511;50.890;8.054;2022-12-18T11:25:51;0.90;99.90
8953;DHT22;4511;50.890;8.054;2022-12-18T11:28:25;1.00;99.90
8953;DHT22;4511;50.890;8.054;2022-12-18T11:31:08;1.10;99.90
8953;DHT22;4511;50.890;8.054;2022-12-18T11:33:35;1.10;99.90
8953;DHT22;4511;50.890;8.054;2022-12-18T11:36:04;1.10;99.90
8953;DHT22;4511;50.890;8.054;2022-12-18T11:38:32;1.10;99.90
8953;DHT22;4511;50.890;8.054;2022-12-18T11:41:02;1.10;99.90
8953;DHT22;4511;50.890;8.054;2022-12-18T11:43:31;1.10;99.90
8953;DHT22;4511;50.890;8.054;2022-12-18T11:46:00;1.10;99.90
8953;DHT22;4511;50.890;8.054;2022-12-18T11:48:29;1.10;99.90
8953;DHT22;4511;50.890;8.054;2022-12-18T11:50:57;1.00;99.90
8953;DHT22;4511;50.890;8.054;2022-12-18T11:53:25;1.00;99.90
8953;DHT22;4511;50.890;8.054;2022-12-18T11:56:02;1.00;99.90
8953;DHT22;4511;50.890;8.054;2022-12-18T11:58:37;1.00;99.90
8953;DHT22;4511;50.890;8.054;2022-12-18T12:01:13;1.00;99.90
8953;DHT22;4511;50.890;8.054;2022-12-18T12:03:48;1.00;99.90
8953;DHT22;4511;50.890;8.054;2022-12-18T12:06:19;1.20;99.90
8953;DHT22;4511;50.890;8.054;2022-12-18T12:08:53;1.20;99.90
8953;DHT22;4511;50.890;8.054;2022-12-18T12:11:27;1.30;99.90
8953;DHT22;4511;50.890;8.054;2022-12-18T12:14:02;1.30;99.90
8953;DHT22;4511;50.890;8.054;2022-12-18T12:16:31;1.30;99.90
8953;DHT22;4511;50.890;8.054;2022-12-18T12:19:02;1.20;99.90
8953;DHT22;4511;50.890;8.054;2022-12-18T12:21:33;1.20;99.90
8953;DHT22;4511;50.890;8.054;2022-12-18T12:24:04;1.10;99.90
8953;DHT22;4511;50.890;8.054;2022-12-18T12:26:38;0.90;99.90
8953;DHT22;4511;50.890;8.054;2022-12-18T12:32:00;0.90;99.90
8953;DHT22;4511;50.890;8.054;2022-12-18T12:34:30;0.90;99.90
8953;DHT22;4511;50.890;8.054;2022-12-18T12:37:03;0.80;99.90
8953;DHT22;4511;50.890;8.054;2022-12-18T12:39:35;0.70;99.90
8953;DHT22;4511;50.890;8.054;2022-12-18T12:42:05;0.70;99.90
8953;DHT22;4511;50.890;8.054;2022-12-18T12:44:50;0.60;99.90
8953;DHT22;4511;50.890;8.054;2022-12-18T12:47:18;0.50;99.90
8953;DHT22;4511;50.890;8.054;2022-12-18T12:49:46;0.40;99.90
8953;DHT22;4511;50.890;8.054;2022-12-18T12:52:14;0.30;99.90
8953;DHT22;4511;50.890;8.054;2022-12-18T12:54:42;0.20;99.90
8953;DHT22;4511;50.890;8.054;2022-12-18T12:57:12;0.10;99.90
8953;DHT22;4511;50.890;8.054;2022-12-18T12:59:45;0.10;99.90
8953;DHT22;4511;50.890;8.054;2022-12-18T13:02:14;0.10;99.90
8953;DHT22;4511;50.890;8.054;2022-12-18T13:04:45;0.00;99.90
8953;DHT22;4511;50.890;8.054;2022-12-18T13:07:14;-0.10;99.90
8953;DHT22;4511;50.890;8.054;2022-12-18T13:12:24;-0.10;99.90
8953;DHT22;4511;50.890;8.054;2022-12-18T13:15:12;-0.20;99.90
8953;DHT22;4511;50.890;8.054;2022-12-18T13:17:39;-0.20;99.90
8953;DHT22;4511;50.890;8.054;2022-12-18T13:20:07;-0.20;99.90
8953;DHT22;4511;50.890;8.054;2022-12-18T13:22:35;-0.30;99.90
8953;DHT22;4511;50.890;8.054;2022-12-18T13:25:03;-0.50;99.90
8953;DHT22;4511;50.890;8.054;2022-12-18T13:35:50;-0.60;99.90
8953;DHT22;4511;50.890;8.054;2022-12-18T13:38:20;-0.60;99.90
8953;DHT22;4511;50.890;8.054;2022-12-18T13:40:53;-0.70;99.90
8953;DHT22;4511;50.890;8.054;2022-12-18T13:43:27;-0.80;99.90
8953;DHT22;4511;50.890;8.054;2022-12-18T13:46:01;-0.90;99.90
8953;DHT22;4511;50.890;8.054;2022-12-18T13:48:29;-0.80;99.90
8953;DHT22;4511;50.890;8.054;2022-12-18T13:51:00;-0.80;99.90
8953;DHT22;4511;50.890;8.054;2022-12-18T13:53:29;-0.90;99.90
8953;DHT22;4511;50.890;8.054;2022-12-18T13:55:56;-0.90;99.90
8953;DHT22;4511;50.890;8.054;2022-12-18T13:58:23;-1.00;99.90
8953;DHT22;4511;50.890;8.054;2022-12-18T14:00:49;-1.00;99.90
8953;DHT22;4511;50.890;8.054;2022-12-18T14:03:17;-1.10;99.90
8953;DHT22;4511;50.890;8.054;2022-12-18T14:05:44;-1.10;99.90
8953;DHT22;4511;50.890;8.054;2022-12-18T14:08:12;-1.20;99.90
8953;DHT22;4511;50.890;8.054;2022-12-18T14:10:39;-1.20;99.90
8953;DHT22;4511;50.890;8.054;2022-12-18T14:13:08;-1.20;99.90
8953;DHT22;4511;50.890;8.054;2022-12-18T14:15:36;-1.10;99.90
8953;DHT22;4511;50.890;8.054;2022-12-18T14:18:12;-1.20;99.90
8953;DHT22;4511;50.890;8.054;2022-12-18T14:20:43;-1.20;99.90
8953;DHT22;4511;50.890;8.054;2022-12-18T14:26:20;-1.30;99.90
8953;DHT22;4511;50.890;8.054;2022-12-18T14:28:47;-1.30;99.90
8953;DHT22;4511;50.890;8.054;2022-12-18T14:31:16;-1.40;99.90
8953;DHT22;4511;50.890;8.054;2022-12-18T14:33:43;-1.60;99.90
8953;DHT22;4511;50.890;8.054;2022-12-18T14:36:13;-1.70;99.90
8953;DHT22;4511;50.890;8.054;2022-12-18T14:38:41;-1.80;99.90
8953;DHT22;4511;50.890;8.054;2022-12-18T14:41:11;-1.80;99.90
8953;DHT22;4511;50.890;8.054;2022-12-18T14:43:39;-1.90;99.90
8953;DHT22;4511;50.890;8.054;2022-12-18T14:46:06;-2.00;99.90
8953;DHT22;4511;50.890;8.054;2022-12-18T14:48:51;-2.00;99.90
8953;DHT22;4511;50.890;8.054;2022-12-18T14:51:19;-2.00;99.90
8953;DHT22;4511;50.890;8.054;2022-12-18T14:53:46;-2.00;99.90
8953;DHT22;4511;50.890;8.054;2022-12-18T14:56:15;-1.90;99.90
8953;DHT22;4511;50.890;8.054;2022-12-18T14:58:49;-2.00;99.90
8953;DHT22;4511;50.890;8.054;2022-12-18T15:01:20;-1.90;99.90
8953;DHT22;4511;50.890;8.054;2022-12-18T15:03:48;-2.00;99.90
8953;DHT22;4511;50.890;8.054;2022-12-18T15:06:15;-2.10;99.90
8953;DHT22;4511;50.890;8.054;2022-12-18T15:08:42;-2.20;99.90
8953;DHT22;4511;50.890;8.054;2022-12-18T15:16:44;-2.50;99.90
8953;DHT22;4511;50.890;8.054;2022-12-18T15:19:15;-2.50;99.90
8953;DHT22;4511;50.890;8.054;2022-12-18T15:21:42;-2.60;99.90
8953;DHT22;4511;50.890;8.054;2022-12-18T15:24:14;-2.60;99.90
8953;DHT22;4511;50.890;8.054;2022-12-18T15:26:42;-2.60;99.90
8953;DHT22;4511;50.890;8.054;2022-12-18T15:29:15;-2.60;99.90
8953;DHT22;4511;50.890;8.054;2022-12-18T15:31:45;-2.60;99.90
8953;DHT22;4511;50.890;8.054;2022-12-18T15:34:23;-2.60;99.90
8953;DHT22;4511;50.890;8.054;2022-12-18T15:36:51;-2.80;99.90
8953;DHT22;4511;50.890;8.054;2022-12-18T15:39:18;-2.80;99.90
8953;DHT22;4511;50.890;8.054;2022-12-18T15:41:44;-2.80;99.90
8953;DHT22;4511;50.890;8.054;2022-12-18T15:44:25;-2.70;99.90
8953;DHT22;4511;50.890;8.054;2022-12-18T15:46:53;-2.90;99.90
8953;DHT22;4511;50.890;8.054;2022-12-18T15:49:19;-2.90;99.90
8953;DHT22;4511;50.890;8.054;2022-12-18T15:51:46;-2.80;99.90
8953;DHT22;4511;50.890;8.054;2022-12-18T15:54:16;-2.90;99.90
8953;DHT22;4511;50.890;8.054;2022-12-18T15:57:03;-3.10;99.90
8953;DHT22;4511;50.890;8.054;2022-12-18T15:59:47;-3.10;99.90
8953;DHT22;4511;50.890;8.054;2022-12-18T16:02:15;-3.10;99.90
8953;DHT22;4511;50.890;8.054;2022-12-18T16:04:43;-3.10;99.90
8953;DHT22;4511;50.890;8.054;2022-12-18T16:07:11;-3.00;99.90
8953;DHT22;4511;50.890;8.054;2022-12-18T16:09:37;-3.10;99.90
8953;DHT22;4511;50.890;8.054;2022-12-18T16:12:04;-3.10;99.90
8953;DHT22;4511;50.890;8.054;2022-12-18T16:14:31;-3.10;99.90
8953;DHT22;4511;50.890;8.054;2022-12-18T16:16:59;-3.10;99.90
8953;DHT22;4511;50.890;8.054;2022-12-18T16:19:27;-3.00;99.90
8953;DHT22;4511;50.890;8.054;2022-12-18T16:21:55;-3.10;99.90
8953;DHT22;4511;50.890;8.054;2022-12-18T16:24:22;-3.10;99.90
8953;DHT22;4511;50.890;8.054;2022-12-18T16:26:49;-3.10;99.90
8953;DHT22;4511;50.890;8.054;2022-12-18T16:29:16;-3.00;99.90
8953;DHT22;4511;50.890;8.054;2022-12-18T16:31:43;-3.00;99.90
8953;DHT22;4511;50.890;8.054;2022-12-18T16:34:10;-3.00;99.90
8953;DHT22;4511;50.890;8.054;2022-12-18T16:36:38;-3.20;99.90
8953;DHT22;4511;50.890;8.054;2022-12-18T16:39:05;-3.20;99.90